Shirley, Maine
Current Conditions -  °F | °C
As of 12:53 AM on Saturday 29 Nov 2014 (Local Time) from KMLT Reporting Station
Few Clouds Few Clouds  
Wind Chill: 19°   Ceiling: Unl
Heat Index: 19°   Visibility: 10mi
Dew Point: 11°   Wind: 3mph
Humidity: 71%   Direction: 270°W
Pressure: 30.1"   Gusts: NA
Location:  45.3646°N, 69.6212°W
Report Text: KMLT 290553Z AUTO 27003KT 10SM FEW044 M07/M12 A3010 RMK AO2 SLP206 I6000 T10721117 11056 21106 53008
Loading
Personal Weather Stations






























Interactive Weather Map New forecast layout! Learn more

10-Day Weather Forecast

Advertisements
Track Severe Weather on mobile